createdAt,value
2023-04-06T00:01:04.892Z,13.70
2023-04-06T00:03:32.265Z,13.63
2023-04-06T00:05:59.239Z,13.45
2023-04-06T00:08:27.233Z,12.30
2023-04-06T00:10:54.280Z,18.70
2023-04-06T00:13:21.538Z,12.25
2023-04-06T00:15:48.452Z,12.88
2023-04-06T00:18:15.389Z,10.45
2023-04-06T00:20:42.407Z,12.77
2023-04-06T00:23:09.245Z,13.18
2023-04-06T00:25:36.551Z,14.30
2023-04-06T00:28:04.603Z,12.93
2023-04-06T00:30:31.531Z,13.43
2023-04-06T00:32:59.258Z,12.17
2023-04-06T00:35:26.141Z,14.05
2023-04-06T00:37:53.296Z,13.65
2023-04-06T00:40:20.511Z,14.30
2023-04-06T00:42:47.416Z,13.27
2023-04-06T00:45:14.409Z,11.83
2023-04-06T00:47:41.520Z,14.13
2023-04-06T00:50:09.029Z,15.07
2023-04-06T00:52:36.720Z,15.70
2023-04-06T00:55:05.323Z,13.77
2023-04-06T00:57:33.966Z,14.53
2023-04-06T01:00:00.989Z,14.70
2023-04-06T01:02:28.064Z,13.02
2023-04-06T01:04:55.886Z,12.95
2023-04-06T01:07:36.157Z,13.50
2023-04-06T01:10:11.089Z,14.27
2023-04-06T01:12:39.862Z,13.27
2023-04-06T01:15:14.191Z,13.23
2023-04-06T01:17:45.078Z,14.95
2023-04-06T01:20:15.557Z,13.52
2023-04-06T01:22:43.215Z,14.50
2023-04-06T01:25:12.883Z,13.85
2023-04-06T01:27:46.554Z,12.75
2023-04-06T01:30:13.713Z,16.00
2023-04-06T01:32:53.894Z,14.32
2023-04-06T01:35:53.099Z,13.67
2023-04-06T01:38:21.262Z,16.58
2023-04-06T01:40:49.183Z,13.90
2023-04-06T01:43:18.241Z,12.95
2023-04-06T01:46:03.124Z,11.65
2023-04-06T01:48:34.733Z,12.70
2023-04-06T01:51:08.918Z,12.15
2023-04-06T01:53:44.985Z,14.85
2023-04-06T01:56:12.203Z,11.50
2023-04-06T01:58:44.751Z,13.32
2023-04-06T02:01:14.603Z,13.90
2023-04-06T02:03:52.202Z,11.07
2023-04-06T02:06:20.241Z,11.48
2023-04-06T02:08:47.080Z,17.08
2023-04-06T02:11:13.861Z,12.80
2023-04-06T02:13:46.073Z,15.23
2023-04-06T02:16:12.952Z,12.50
2023-04-06T02:18:40.173Z,17.75
2023-04-06T02:21:07.170Z,15.45
2023-04-06T02:23:33.956Z,12.40
2023-04-06T02:26:01.010Z,13.00
2023-04-06T02:28:27.984Z,19.60
2023-04-06T02:30:54.929Z,15.32
2023-04-06T02:33:26.146Z,14.63
2023-04-06T02:35:53.145Z,14.98
2023-04-06T02:38:20.406Z,12.97
2023-04-06T02:40:47.207Z,13.55
2023-04-06T02:43:25.821Z,16.00
2023-04-06T02:46:00.017Z,13.85
2023-04-06T02:48:27.294Z,15.20
2023-04-06T02:50:54.170Z,14.17
2023-04-06T02:53:20.990Z,18.70
2023-04-06T02:55:47.925Z,13.85
2023-04-06T02:58:14.745Z,15.60
2023-04-06T03:00:48.900Z,14.18
2023-04-06T03:03:16.275Z,12.03
2023-04-06T03:05:44.801Z,14.82
2023-04-06T03:08:11.887Z,17.58
2023-04-06T03:10:42.734Z,14.88
2023-04-06T03:13:09.530Z,15.32
2023-04-06T03:15:48.897Z,17.00
2023-04-06T03:18:23.564Z,17.63
2023-04-06T03:20:52.005Z,15.95
2023-04-06T03:23:21.785Z,17.33
2023-04-06T03:25:52.726Z,14.45
2023-04-06T03:28:21.020Z,16.50
2023-04-06T03:30:55.051Z,16.95
2023-04-06T03:33:37.895Z,18.58
2023-04-06T03:36:05.255Z,18.42
2023-04-06T03:38:37.934Z,19.05
2023-04-06T03:41:10.974Z,19.63
2023-04-06T03:43:39.652Z,16.77
2023-04-06T03:46:06.467Z,16.83
2023-04-06T03:48:33.467Z,19.30
2023-04-06T03:51:04.170Z,20.75
2023-04-06T03:53:31.185Z,17.03
2023-04-06T03:55:58.122Z,16.70
2023-04-06T03:58:24.998Z,18.17
2023-04-06T04:00:52.962Z,16.90
2023-04-06T04:03:19.916Z,18.17
2023-04-06T04:05:47.444Z,17.23
2023-04-06T04:08:14.377Z,20.80
2023-04-06T04:10:41.663Z,19.52
2023-04-06T04:13:08.479Z,16.85
2023-04-06T04:15:35.652Z,22.40
2023-04-06T04:18:02.527Z,19.50
2023-04-06T04:20:29.565Z,19.75
2023-04-06T04:22:56.490Z,17.40
2023-04-06T04:25:24.204Z,19.60
2023-04-06T04:27:51.678Z,22.42
2023-04-06T04:30:20.622Z,21.73
2023-04-06T04:32:47.868Z,17.10
2023-04-06T04:35:17.948Z,20.10
2023-04-06T04:37:45.606Z,18.90
2023-04-06T04:40:13.134Z,20.13
2023-04-06T04:42:52.138Z,19.13
2023-04-06T04:45:34.662Z,18.45
2023-04-06T04:48:12.564Z,20.75
2023-04-06T04:50:50.631Z,18.65
2023-04-06T04:53:19.148Z,18.65
2023-04-06T04:55:46.746Z,16.90
2023-04-06T04:58:17.944Z,19.60
2023-04-06T05:00:55.849Z,20.63
2023-04-06T05:03:25.654Z,18.58
2023-04-06T05:05:59.610Z,19.15
2023-04-06T05:08:30.596Z,17.97
2023-04-06T05:10:58.107Z,21.15
2023-04-06T05:13:25.813Z,20.10
2023-04-06T05:15:54.578Z,20.30
2023-04-06T05:18:28.569Z,20.35
2023-04-06T05:20:56.688Z,17.20
2023-04-06T05:23:31.537Z,17.63
2023-04-06T05:26:01.973Z,20.10
2023-04-06T05:28:28.767Z,21.48
2023-04-06T05:30:55.902Z,19.98
2023-04-06T05:33:22.946Z,20.47
2023-04-06T05:36:04.782Z,18.42
2023-04-06T05:38:31.942Z,18.73
2023-04-06T05:41:05.171Z,21.52
2023-04-06T05:43:33.652Z,20.55
2023-04-06T05:46:01.412Z,19.57
2023-04-06T05:48:28.288Z,22.05
2023-04-06T05:50:56.146Z,19.38
2023-04-06T05:53:30.169Z,16.60
2023-04-06T05:56:04.151Z,20.42
2023-04-06T05:58:31.487Z,20.47
2023-04-06T06:01:03.830Z,19.08
2023-04-06T06:03:38.317Z,15.38
2023-04-06T06:06:06.745Z,19.33
2023-04-06T06:08:53.827Z,19.17
2023-04-06T06:11:21.089Z,21.23
2023-04-06T06:13:49.492Z,20.17
2023-04-06T06:16:19.591Z,20.77
2023-04-06T06:18:48.483Z,23.20
2023-04-06T06:21:16.046Z,21.85
2023-04-06T06:23:44.149Z,18.57
2023-04-06T06:26:15.109Z,21.75
2023-04-06T06:28:42.094Z,22.20
2023-04-06T06:31:11.518Z,20.63
2023-04-06T06:33:38.483Z,21.92
2023-04-06T06:36:05.788Z,21.83
2023-04-06T06:38:32.916Z,25.27
2023-04-06T06:40:59.895Z,21.23
2023-04-06T06:43:30.041Z,21.23
2023-04-06T06:46:00.953Z,21.45
2023-04-06T06:48:28.065Z,20.17
2023-04-06T06:50:55.060Z,23.20
2023-04-06T06:53:22.208Z,22.05
2023-04-06T06:55:51.748Z,21.27
2023-04-06T06:58:21.542Z,25.50
2023-04-06T07:00:48.716Z,23.47
2023-04-06T07:03:16.643Z,20.50
2023-04-06T07:05:51.194Z,21.67
2023-04-06T07:08:18.202Z,26.67
2023-04-06T07:10:45.038Z,21.80
2023-04-06T07:13:12.189Z,22.27
2023-04-06T07:15:39.132Z,22.45
2023-04-06T07:18:06.083Z,21.33
2023-04-06T07:20:32.941Z,19.40
2023-04-06T07:22:59.948Z,21.88
2023-04-06T07:25:26.836Z,22.50
2023-04-06T07:27:55.475Z,20.10
2023-04-06T07:30:23.354Z,23.13
2023-04-06T07:32:51.314Z,20.33
2023-04-06T07:35:18.495Z,21.80
2023-04-06T07:37:45.356Z,23.83
2023-04-06T07:40:12.305Z,22.27
2023-04-06T07:42:40.577Z,21.17
2023-04-06T07:45:09.675Z,25.27
2023-04-06T07:47:36.923Z,25.52
2023-04-06T07:50:04.683Z,24.77
2023-04-06T07:52:33.397Z,22.92
2023-04-06T07:55:01.060Z,21.13
2023-04-06T07:57:28.212Z,24.85
2023-04-06T07:59:55.260Z,26.10
2023-04-06T08:02:22.899Z,25.30
2023-04-06T08:04:49.879Z,23.70
2023-04-06T08:07:16.709Z,24.75
2023-04-06T08:09:43.635Z,29.00
2023-04-06T08:12:10.953Z,30.67
2023-04-06T08:14:37.825Z,25.17
2023-04-06T08:17:06.360Z,21.52
2023-04-06T08:19:33.519Z,25.05
2023-04-06T08:22:00.731Z,20.42
2023-04-06T08:24:27.877Z,22.73
2023-04-06T08:26:54.667Z,23.90
2023-04-06T08:29:21.594Z,23.27
2023-04-06T08:31:48.521Z,24.13
2023-04-06T08:34:16.385Z,25.08
2023-04-06T08:36:43.516Z,25.92
2023-04-06T08:39:10.362Z,25.47
2023-04-06T08:41:37.283Z,27.17
2023-04-06T08:44:04.315Z,24.38
2023-04-06T08:46:32.068Z,25.52
2023-04-06T08:49:01.089Z,26.50
2023-04-06T08:51:29.915Z,28.07
2023-04-06T08:53:58.750Z,24.27
2023-04-06T08:56:27.338Z,27.83
2023-04-06T08:58:56.018Z,27.02
2023-04-06T09:01:27.374Z,25.85
2023-04-06T09:04:01.672Z,27.30
2023-04-06T09:06:28.890Z,22.33
2023-04-06T09:08:59.731Z,25.48
2023-04-06T09:11:26.593Z,28.00
2023-04-06T09:13:55.775Z,32.45
2023-04-06T09:16:24.200Z,28.13
2023-04-06T09:18:51.449Z,29.73
2023-04-06T09:21:24.488Z,32.10
2023-04-06T09:24:03.098Z,31.35
2023-04-06T09:26:30.545Z,32.20
2023-04-06T09:28:58.932Z,32.17
2023-04-06T09:31:27.993Z,28.75
2023-04-06T09:33:55.761Z,33.55
2023-04-06T09:36:35.920Z,30.38
2023-04-06T09:39:09.701Z,29.38
2023-04-06T09:41:36.902Z,28.47
2023-04-06T09:44:04.817Z,25.77
2023-04-06T09:46:50.644Z,27.10
2023-04-06T09:49:23.870Z,28.80
2023-04-06T09:51:56.914Z,24.98
2023-04-06T09:54:24.603Z,25.43
2023-04-06T09:57:14.857Z,21.83
2023-04-06T10:00:12.216Z,26.10
2023-04-06T10:02:55.708Z,22.00
2023-04-06T10:05:40.778Z,19.35
2023-04-06T10:08:10.980Z,17.67
2023-04-06T10:10:38.804Z,21.67
2023-04-06T10:13:06.600Z,15.85
2023-04-06T10:15:34.667Z,13.63
2023-04-06T10:18:03.101Z,13.00
2023-04-06T10:20:32.620Z,14.27
2023-04-06T10:23:17.742Z,16.38
2023-04-06T10:25:55.881Z,14.73
2023-04-06T10:28:23.798Z,14.25
2023-04-06T10:30:57.396Z,14.18
2023-04-06T10:33:24.433Z,12.17
2023-04-06T10:35:51.351Z,12.48
2023-04-06T10:38:22.747Z,15.13
2023-04-06T10:40:49.894Z,10.55
2023-04-06T10:43:21.906Z,10.38
2023-04-06T10:46:01.456Z,11.00
2023-04-06T10:48:46.637Z,9.95
2023-04-06T10:51:19.886Z,10.98
2023-04-06T10:53:50.022Z,9.88
2023-04-06T10:56:22.081Z,12.32
2023-04-06T10:58:50.691Z,10.83
2023-04-06T11:01:22.442Z,13.27
2023-04-06T11:03:53.283Z,12.02
2023-04-06T11:06:27.896Z,12.82
2023-04-06T11:08:56.150Z,10.90
2023-04-06T11:11:26.879Z,9.63
2023-04-06T11:13:56.482Z,11.98
2023-04-06T11:16:25.651Z,10.05
2023-04-06T11:19:01.115Z,10.90
2023-04-06T11:21:35.138Z,10.95
2023-04-06T11:24:16.419Z,9.57
2023-04-06T11:26:46.944Z,10.45
2023-04-06T11:29:14.632Z,11.95
2023-04-06T11:31:43.645Z,11.07
2023-04-06T11:34:16.899Z,10.30
2023-04-06T11:36:45.014Z,10.80
2023-04-06T11:39:19.774Z,13.80
2023-04-06T11:41:50.877Z,8.70
2023-04-06T11:44:30.747Z,9.63
2023-04-06T11:46:58.552Z,10.38
2023-04-06T11:49:39.032Z,10.47
2023-04-06T11:52:17.035Z,9.15
2023-04-06T11:54:44.089Z,9.02
2023-04-06T11:57:10.986Z,9.27
2023-04-06T11:59:38.235Z,11.82
2023-04-06T12:02:06.572Z,10.90
2023-04-06T12:04:33.712Z,15.50
2023-04-06T12:07:00.966Z,11.63
2023-04-06T12:09:27.837Z,11.25
2023-04-06T12:11:54.765Z,12.57
2023-04-06T12:14:21.954Z,12.03
2023-04-06T12:16:48.881Z,12.60
2023-04-06T12:19:15.660Z,12.38
2023-04-06T12:21:43.375Z,12.38
2023-04-06T12:24:10.447Z,17.00
2023-04-06T12:26:38.491Z,10.93
2023-04-06T12:29:09.454Z,13.40
2023-04-06T12:31:44.192Z,13.27
2023-04-06T12:34:11.545Z,13.52
2023-04-06T12:36:39.832Z,11.20
2023-04-06T12:39:07.235Z,12.37
2023-04-06T12:41:34.226Z,12.15
2023-04-06T12:44:01.630Z,14.68
2023-04-06T12:46:28.681Z,14.40
2023-04-06T12:48:56.129Z,9.85
2023-04-06T12:51:23.334Z,13.83
2023-04-06T12:53:50.277Z,14.27
2023-04-06T12:56:19.424Z,12.73
2023-04-06T12:58:46.723Z,16.75
2023-04-06T13:01:14.471Z,15.00
2023-04-06T13:03:42.095Z,12.80
2023-04-06T13:06:09.747Z,13.20
2023-04-06T13:08:38.357Z,18.50
2023-04-06T13:11:06.105Z,13.23
2023-04-06T13:13:38.792Z,13.70
2023-04-06T13:16:09.170Z,12.03
2023-04-06T13:18:38.000Z,14.15
2023-04-06T13:21:08.400Z,14.32
2023-04-06T13:23:36.347Z,13.90
2023-04-06T13:26:08.009Z,13.30
2023-04-06T13:28:38.182Z,15.50
2023-04-06T13:31:05.241Z,11.32
2023-04-06T13:33:32.107Z,13.80
2023-04-06T13:35:59.994Z,14.82
2023-04-06T13:38:26.990Z,14.02
2023-04-06T13:40:54.073Z,14.87
2023-04-06T13:43:21.750Z,14.73
2023-04-06T13:45:53.414Z,16.90
2023-04-06T13:48:20.318Z,12.10
2023-04-06T13:50:47.645Z,17.10
2023-04-06T13:53:19.512Z,14.40
2023-04-06T13:55:56.802Z,13.95
2023-04-06T13:58:23.986Z,13.05
2023-04-06T14:00:51.054Z,13.90
2023-04-06T14:03:18.221Z,14.35
2023-04-06T14:05:46.661Z,14.67
2023-04-06T14:08:14.143Z,16.30
2023-04-06T14:10:43.248Z,14.82
2023-04-06T14:13:10.553Z,15.05
2023-04-06T14:15:37.664Z,15.02
2023-04-06T14:18:04.990Z,15.93
2023-04-06T14:20:35.563Z,18.83
2023-04-06T14:23:02.984Z,15.80
2023-04-06T14:25:32.391Z,17.95
2023-04-06T14:27:59.326Z,11.00
2023-04-06T14:30:26.459Z,15.07
2023-04-06T14:32:53.664Z,19.73
2023-04-06T14:35:20.478Z,10.45
2023-04-06T14:37:48.153Z,12.18
2023-04-06T14:40:15.929Z,14.90
2023-04-06T14:42:43.225Z,14.13
2023-04-06T14:45:10.643Z,13.98
2023-04-06T14:47:37.485Z,13.00
2023-04-06T14:50:04.999Z,11.65
2023-04-06T14:52:32.833Z,9.80
2023-04-06T14:55:00.023Z,11.90
2023-04-06T14:57:27.016Z,15.10
2023-04-06T14:59:55.146Z,14.80
2023-04-06T15:02:30.797Z,12.98
2023-04-06T15:04:58.112Z,14.15
2023-04-06T15:07:26.442Z,12.23
2023-04-06T15:09:53.374Z,9.10
2023-04-06T15:12:20.374Z,13.38
2023-04-06T15:14:47.249Z,11.02
2023-04-06T15:17:14.005Z,13.68
2023-04-06T15:19:41.362Z,12.73
2023-04-06T15:22:08.240Z,12.48
2023-04-06T15:24:35.777Z,12.32
2023-04-06T15:27:03.185Z,10.15
2023-04-06T15:29:35.411Z,16.08
2023-04-06T15:32:02.943Z,11.80
2023-04-06T15:34:33.500Z,15.95
2023-04-06T15:37:04.984Z,12.63
2023-04-06T15:39:32.944Z,11.93
2023-04-06T15:42:00.037Z,13.00
2023-04-06T15:44:27.166Z,14.43
2023-04-06T15:46:54.048Z,13.82
2023-04-06T15:49:21.377Z,10.60
2023-04-06T15:51:50.089Z,6.72
2023-04-06T15:54:18.075Z,12.65
2023-04-06T15:56:44.943Z,11.30
2023-04-06T15:59:11.901Z,12.75
2023-04-06T16:01:40.684Z,12.27
2023-04-06T16:04:09.055Z,11.60
2023-04-06T16:06:36.238Z,11.10
2023-04-06T16:09:03.242Z,11.50
2023-04-06T16:11:30.281Z,14.80
2023-04-06T16:13:57.565Z,12.82
2023-04-06T16:16:24.670Z,11.23
2023-04-06T16:18:51.552Z,11.18
2023-04-06T16:21:19.431Z,13.40
2023-04-06T16:23:47.473Z,11.75
2023-04-06T16:26:15.798Z,12.68
2023-04-06T16:28:43.100Z,11.40
2023-04-06T16:31:23.631Z,12.30
2023-04-06T16:33:55.830Z,13.43
2023-04-06T16:36:33.843Z,10.80
2023-04-06T16:39:01.678Z,12.13
2023-04-06T16:41:28.823Z,11.80
2023-04-06T16:43:57.333Z,12.32
2023-04-06T16:46:32.192Z,11.90
2023-04-06T16:49:03.595Z,10.57
2023-04-06T16:51:32.381Z,11.77
2023-04-06T16:53:59.516Z,10.07
2023-04-06T16:56:29.467Z,10.75
2023-04-06T16:58:59.492Z,12.27
2023-04-06T17:01:28.776Z,12.85
2023-04-06T17:03:56.342Z,11.90
2023-04-06T17:06:23.687Z,9.60
2023-04-06T17:08:51.322Z,13.10
2023-04-06T17:11:25.641Z,13.40
2023-04-06T17:13:55.544Z,9.15
2023-04-06T17:16:22.516Z,13.40
2023-04-06T17:18:49.506Z,11.63
2023-04-06T17:21:16.936Z,10.68
2023-04-06T17:23:44.472Z,6.97
2023-04-06T17:26:11.599Z,9.75
2023-04-06T17:28:38.578Z,10.65
2023-04-06T17:31:10.896Z,10.82
2023-04-06T17:33:41.501Z,12.82
2023-04-06T17:36:12.546Z,13.33
2023-04-06T17:38:43.591Z,9.77
2023-04-06T17:41:12.626Z,12.70
2023-04-06T17:43:39.808Z,11.02
2023-04-06T17:46:06.899Z,10.82
2023-04-06T17:48:34.098Z,15.40
2023-04-06T17:51:01.428Z,13.20
2023-04-06T17:53:32.308Z,11.95
2023-04-06T17:56:03.781Z,13.45
2023-04-06T17:58:31.085Z,14.32
2023-04-06T18:00:58.058Z,11.83
2023-04-06T18:03:24.950Z,11.77
2023-04-06T18:05:51.774Z,12.82
2023-04-06T18:08:18.577Z,13.90
2023-04-06T18:10:46.168Z,15.05
2023-04-06T18:13:13.186Z,15.17
2023-04-06T18:15:42.619Z,13.73
2023-04-06T18:18:09.552Z,13.73
2023-04-06T18:20:41.063Z,14.07
2023-04-06T18:23:08.021Z,15.57
2023-04-06T18:25:40.988Z,13.67
2023-04-06T18:28:09.285Z,14.00
2023-04-06T18:30:36.562Z,13.90
2023-04-06T18:33:04.210Z,14.98
2023-04-06T18:35:31.153Z,12.65
2023-04-06T18:37:57.955Z,14.50
2023-04-06T18:40:38.879Z,16.33
2023-04-06T18:43:07.846Z,16.88
2023-04-06T18:45:43.072Z,16.90
2023-04-06T18:48:10.779Z,16.92
2023-04-06T18:50:37.583Z,15.97
2023-04-06T18:53:09.567Z,17.20
2023-04-06T18:55:37.164Z,18.67
2023-04-06T18:58:04.122Z,15.48
2023-04-06T19:00:31.130Z,19.90
2023-04-06T19:02:58.091Z,18.50
2023-04-06T19:05:25.192Z,19.20
2023-04-06T19:07:52.736Z,19.42
2023-04-06T19:10:20.370Z,21.08
2023-04-06T19:12:48.813Z,22.88
2023-04-06T19:15:16.076Z,19.20
2023-04-06T19:17:43.088Z,19.45
2023-04-06T19:20:10.275Z,23.02
2023-04-06T19:22:37.956Z,22.23
2023-04-06T19:25:06.078Z,23.35
2023-04-06T19:27:32.872Z,20.73
2023-04-06T19:30:00.383Z,25.55
2023-04-06T19:32:27.733Z,24.17
2023-04-06T19:34:59.593Z,26.27
2023-04-06T19:37:26.603Z,23.40
2023-04-06T19:39:53.932Z,24.87
2023-04-06T19:42:21.849Z,25.88
2023-04-06T19:44:48.913Z,29.55
2023-04-06T19:47:16.200Z,24.65
2023-04-06T19:49:43.102Z,27.17
2023-04-06T19:52:10.705Z,26.53
2023-04-06T19:54:39.726Z,25.88
2023-04-06T19:57:07.895Z,25.35
2023-04-06T19:59:44.137Z,24.20
2023-04-06T20:02:11.099Z,27.02
2023-04-06T20:04:38.234Z,26.83
2023-04-06T20:07:05.339Z,28.25
2023-04-06T20:09:32.354Z,29.85
2023-04-06T20:11:59.406Z,32.10
2023-04-06T20:14:26.563Z,31.48
2023-04-06T20:16:53.782Z,34.13
2023-04-06T20:19:20.684Z,29.83
2023-04-06T20:21:48.519Z,29.98
2023-04-06T20:24:16.116Z,33.13
2023-04-06T20:26:42.925Z,30.00
2023-04-06T20:29:09.924Z,33.03
2023-04-06T20:31:36.783Z,32.63
2023-04-06T20:34:06.835Z,32.22
2023-04-06T20:36:34.501Z,36.72
2023-04-06T20:39:01.361Z,36.15
2023-04-06T20:41:28.414Z,33.33
2023-04-06T20:43:55.299Z,34.85
2023-04-06T20:46:22.225Z,32.78
2023-04-06T20:48:49.204Z,37.63
2023-04-06T20:51:26.059Z,36.50
2023-04-06T20:53:53.192Z,36.90
2023-04-06T20:56:21.874Z,34.50
2023-04-06T20:58:49.977Z,41.65
2023-04-06T21:01:17.779Z,38.80
2023-04-06T21:03:45.232Z,33.65
2023-04-06T21:06:12.793Z,34.03
2023-04-06T21:08:39.698Z,33.28
2023-04-06T21:11:06.636Z,33.03
2023-04-06T21:13:34.534Z,26.92
2023-04-06T21:16:02.993Z,34.05
2023-04-06T21:18:31.904Z,24.87
2023-04-06T21:20:59.118Z,25.23
2023-04-06T21:23:25.940Z,27.17
2023-04-06T21:25:55.255Z,26.98
2023-04-06T21:28:22.182Z,25.63
2023-04-06T21:30:49.120Z,22.97
2023-04-06T21:33:16.193Z,28.65
2023-04-06T21:35:43.216Z,23.63
2023-04-06T21:38:10.521Z,25.40
2023-04-06T21:40:37.717Z,20.42
2023-04-06T21:43:04.816Z,14.70
2023-04-06T21:45:33.019Z,18.80
2023-04-06T21:48:00.404Z,14.18
2023-04-06T21:50:27.382Z,13.18
2023-04-06T21:52:54.231Z,17.25
2023-04-06T21:55:21.192Z,21.43
2023-04-06T21:57:48.000Z,17.00
2023-04-06T22:00:15.576Z,19.83
2023-04-06T22:02:42.622Z,12.75
2023-04-06T22:05:09.992Z,13.15
2023-04-06T22:07:37.168Z,12.27
2023-04-06T22:10:04.269Z,13.52
2023-04-06T22:12:31.348Z,16.30
2023-04-06T22:14:58.529Z,11.85
2023-04-06T22:17:25.469Z,12.75
2023-04-06T22:19:52.724Z,14.50
2023-04-06T22:22:19.712Z,13.50
2023-04-06T22:24:46.687Z,8.10
2023-04-06T22:27:13.643Z,11.80
2023-04-06T22:29:40.421Z,7.85
2023-04-06T22:32:07.218Z,10.10
2023-04-06T22:34:34.029Z,11.18
2023-04-06T22:37:00.977Z,11.50
2023-04-06T22:39:27.929Z,9.20
2023-04-06T22:41:54.774Z,10.20
2023-04-06T22:44:21.710Z,10.13
2023-04-06T22:46:48.523Z,7.55
2023-04-06T22:49:15.502Z,8.50
2023-04-06T22:51:42.508Z,11.13
2023-04-06T22:54:10.563Z,7.90
2023-04-06T22:56:37.627Z,8.83
2023-04-06T22:59:04.497Z,8.48
2023-04-06T23:01:31.961Z,8.88
2023-04-06T23:03:58.979Z,12.27
2023-04-06T23:06:27.275Z,9.13
2023-04-06T23:08:54.161Z,10.40
2023-04-06T23:11:22.307Z,11.98
2023-04-06T23:13:49.290Z,13.70
2023-04-06T23:16:16.161Z,7.93
2023-04-06T23:18:43.333Z,10.35
2023-04-06T23:21:10.518Z,8.13
2023-04-06T23:23:37.341Z,11.57
2023-04-06T23:26:04.360Z,14.05
2023-04-06T23:28:31.439Z,13.88
2023-04-06T23:30:58.824Z,13.40
2023-04-06T23:33:27.090Z,7.17
2023-04-06T23:35:53.831Z,13.75
2023-04-06T23:38:20.882Z,8.57
2023-04-06T23:40:48.224Z,10.32
2023-04-06T23:43:15.061Z,7.63
2023-04-06T23:45:42.995Z,11.87
2023-04-06T23:48:10.509Z,10.38
2023-04-06T23:50:37.549Z,7.95
2023-04-06T23:53:05.018Z,11.23
2023-04-06T23:55:31.809Z,11.48
2023-04-06T23:58:00.580Z,7.97
